createdAt,value
2022-11-20T00:02:09.413Z,-0.22
2022-11-20T00:05:12.183Z,-0.23
2022-11-20T00:08:14.994Z,-0.21
2022-11-20T00:11:20.818Z,-0.17
2022-11-20T00:14:23.626Z,-0.20
2022-11-20T00:17:26.113Z,-0.20
2022-11-20T00:20:29.115Z,-0.17
2022-11-20T00:23:32.141Z,-0.15
2022-11-20T00:26:35.340Z,-0.23
2022-11-20T00:29:37.905Z,-0.17
2022-11-20T00:32:40.669Z,-0.23
2022-11-20T00:35:43.271Z,-0.17
2022-11-20T00:38:46.635Z,-0.18
2022-11-20T00:41:49.272Z,-0.15
2022-11-20T00:44:51.947Z,-0.18
2022-11-20T00:47:54.520Z,-0.10
2022-11-20T00:50:57.528Z,-0.12
2022-11-20T00:54:01.242Z,-0.16
2022-11-20T00:57:04.379Z,-0.01
2022-11-20T01:00:07.553Z,-0.08
2022-11-20T01:03:10.448Z,-0.06
2022-11-20T01:06:18.900Z,-0.04
2022-11-20T01:09:21.987Z,-0.03
2022-11-20T01:12:24.647Z,-0.02
2022-11-20T01:15:27.417Z,-0.09
2022-11-20T01:18:30.222Z,-0.01
2022-11-20T01:21:38.812Z,-0.04
2022-11-20T01:24:41.295Z,-0.07
2022-11-20T01:27:44.045Z,-0.03
2022-11-20T01:30:46.771Z,-0.03
2022-11-20T01:33:52.400Z,0.00
2022-11-20T01:36:55.224Z,0.07
2022-11-20T01:39:58.065Z,0.01
2022-11-20T01:43:23.283Z,0.07
2022-11-20T01:46:26.297Z,0.03
2022-11-20T01:49:42.064Z,-0.02
2022-11-20T01:52:54.975Z,-0.03
2022-11-20T01:56:00.637Z,-0.06
2022-11-20T01:59:06.515Z,-0.04
2022-11-20T02:02:09.140Z,-0.01
2022-11-20T02:05:24.643Z,-0.03
2022-11-20T02:08:27.823Z,-0.02
2022-11-20T02:11:32.254Z,-0.03
2022-11-20T02:14:34.981Z,-0.03
2022-11-20T02:17:38.311Z,0.04
2022-11-20T02:20:45.140Z,0.06
2022-11-20T02:24:06.193Z,0.03
2022-11-20T02:27:17.076Z,0.03
2022-11-20T02:30:20.155Z,0.00
2022-11-20T02:33:22.837Z,0.05
2022-11-20T02:36:28.900Z,0.00
2022-11-20T02:39:31.644Z,0.07
2022-11-20T02:42:34.389Z,0.05
2022-11-20T02:45:37.427Z,0.01
2022-11-20T02:48:40.510Z,0.02
2022-11-20T02:51:43.051Z,0.10
2022-11-20T02:54:45.962Z,0.12
2022-11-20T02:57:48.418Z,0.16
2022-11-20T03:00:51.493Z,0.08
2022-11-20T03:03:55.786Z,0.02
2022-11-20T03:06:58.458Z,0.05
2022-11-20T03:10:01.287Z,0.00
2022-11-20T03:13:03.975Z,0.03
2022-11-20T03:16:18.148Z,0.07
2022-11-20T03:19:21.483Z,0.03
2022-11-20T03:22:24.140Z,0.04
2022-11-20T03:25:27.124Z,-0.04
2022-11-20T03:28:29.779Z,-0.06
2022-11-20T03:31:35.912Z,-0.08
2022-11-20T03:34:38.693Z,-0.05
2022-11-20T03:37:41.578Z,-0.06
2022-11-20T03:40:44.291Z,-0.08
2022-11-20T03:43:54.309Z,-0.12
2022-11-20T03:46:56.984Z,0.04
2022-11-20T03:49:59.951Z,-0.10
2022-11-20T03:53:02.396Z,-0.04
2022-11-20T03:56:05.822Z,-0.06
2022-11-20T03:59:11.690Z,-0.08
2022-11-20T04:02:14.854Z,-0.01
2022-11-20T04:05:17.492Z,0.09
2022-11-20T04:08:20.220Z,0.08
2022-11-20T04:11:25.567Z,-0.03
2022-11-20T04:14:28.521Z,-0.10
2022-11-20T04:17:31.155Z,-0.11
2022-11-20T04:20:34.524Z,-0.15
2022-11-20T04:23:37.458Z,-0.19
2022-11-20T04:26:41.409Z,-0.16
2022-11-20T04:29:43.879Z,-0.23
2022-11-20T04:32:47.082Z,-0.22
2022-11-20T04:35:49.670Z,-0.14
2022-11-20T04:38:56.752Z,-0.15
2022-11-20T04:42:22.901Z,-0.22
2022-11-20T04:45:25.733Z,-0.12
2022-11-20T04:48:29.608Z,-0.21
2022-11-20T04:51:32.906Z,-0.27
2022-11-20T04:54:35.316Z,-0.19
2022-11-20T04:57:38.231Z,-0.20
2022-11-20T05:00:41.040Z,-0.25
2022-11-20T05:03:45.613Z,-0.22
2022-11-20T05:06:48.298Z,-0.25
2022-11-20T05:09:51.197Z,-0.24
2022-11-20T05:12:54.343Z,-0.25
2022-11-20T05:15:57.193Z,-0.29
2022-11-20T05:19:00.270Z,-0.21
2022-11-20T05:22:02.952Z,-0.15
2022-11-20T05:25:05.777Z,-0.20
2022-11-20T05:28:08.843Z,-0.18
2022-11-20T05:31:14.035Z,-0.23
2022-11-20T05:34:17.081Z,-0.24
2022-11-20T05:37:19.983Z,-0.33
2022-11-20T05:40:22.615Z,-0.30
2022-11-20T05:43:25.249Z,-0.36
2022-11-20T05:46:29.436Z,-0.38
2022-11-20T05:49:33.359Z,-0.35
2022-11-20T05:52:36.219Z,-0.33
2022-11-20T05:55:38.833Z,-0.24
2022-11-20T05:58:41.924Z,-0.29
2022-11-20T06:01:44.444Z,-0.29
2022-11-20T06:04:47.448Z,-0.25
2022-11-20T06:07:50.094Z,-0.28
2022-11-20T06:10:52.970Z,-0.22
2022-11-20T06:13:55.787Z,-0.24
2022-11-20T06:16:58.719Z,-0.29
2022-11-20T06:20:01.622Z,-0.29
2022-11-20T06:23:04.529Z,-0.15
2022-11-20T06:26:13.212Z,-0.14
2022-11-20T06:29:16.292Z,-0.04
2022-11-20T06:32:18.740Z,0.04
2022-11-20T06:35:21.655Z,0.13
2022-11-20T06:38:25.007Z,0.21
2022-11-20T06:41:29.095Z,0.20
2022-11-20T06:44:31.748Z,0.27
2022-11-20T06:47:34.796Z,0.28
2022-11-20T06:50:38.095Z,0.30
2022-11-20T06:53:40.908Z,0.30
2022-11-20T06:56:43.336Z,0.26
2022-11-20T06:59:46.378Z,0.23
2022-11-20T07:02:49.010Z,0.29
2022-11-20T07:05:51.866Z,0.38
2022-11-20T07:08:54.548Z,0.52
2022-11-20T07:11:57.302Z,0.42
2022-11-20T07:14:59.913Z,0.55
2022-11-20T07:18:03.273Z,0.56
2022-11-20T07:21:09.308Z,0.74
2022-11-20T07:24:11.964Z,0.93
2022-11-20T07:27:15.269Z,1.04
2022-11-20T07:30:18.331Z,1.04
2022-11-20T07:33:20.900Z,1.01
2022-11-20T07:36:23.783Z,1.06
2022-11-20T07:39:26.930Z,1.06
2022-11-20T07:42:29.916Z,1.11
2022-11-20T07:45:32.616Z,1.19
2022-11-20T07:48:35.288Z,1.19
2022-11-20T07:51:37.900Z,1.16
2022-11-20T07:54:40.979Z,1.22
2022-11-20T07:57:43.471Z,1.30
2022-11-20T08:00:46.687Z,1.28
2022-11-20T08:03:49.284Z,1.22
2022-11-20T08:06:53.733Z,1.19
2022-11-20T08:09:56.527Z,1.28
2022-11-20T08:13:17.747Z,1.42
2022-11-20T08:16:20.376Z,1.47
2022-11-20T08:19:23.805Z,1.46
2022-11-20T08:22:26.880Z,1.43
2022-11-20T08:25:31.220Z,1.42
2022-11-20T08:28:33.719Z,1.43
2022-11-20T08:31:37.120Z,1.42
2022-11-20T08:34:39.605Z,1.50
2022-11-20T08:37:42.797Z,1.67
2022-11-20T08:41:05.327Z,1.79
2022-11-20T08:44:08.888Z,1.84
2022-11-20T08:47:11.599Z,1.79
2022-11-20T08:50:16.374Z,1.83
2022-11-20T08:53:18.870Z,1.81
2022-11-20T08:56:21.684Z,1.76
2022-11-20T08:59:43.851Z,1.87
2022-11-20T09:02:47.540Z,1.99
2022-11-20T09:05:50.002Z,2.14
2022-11-20T09:08:58.700Z,2.24
2022-11-20T09:12:02.433Z,2.24
2022-11-20T09:15:05.570Z,2.42
2022-11-20T09:18:08.252Z,2.48
2022-11-20T09:21:12.994Z,2.62
2022-11-20T09:24:15.860Z,2.66
2022-11-20T09:27:24.691Z,2.62
2022-11-20T09:30:28.050Z,2.73
2022-11-20T09:33:31.514Z,2.79
2022-11-20T09:36:34.002Z,2.74
2022-11-20T09:39:40.070Z,2.73
2022-11-20T09:42:50.508Z,2.80
2022-11-20T09:45:56.827Z,2.89
2022-11-20T09:49:18.288Z,2.93
2022-11-20T09:52:42.803Z,3.23
2022-11-20T09:55:47.473Z,3.50
2022-11-20T09:58:55.870Z,3.54
2022-11-20T10:02:00.458Z,3.56
2022-11-20T10:05:20.650Z,3.60
2022-11-20T10:08:23.319Z,3.76
2022-11-20T10:12:08.053Z,3.78
2022-11-20T10:15:26.291Z,3.79
2022-11-20T10:18:44.007Z,3.78
2022-11-20T10:22:19.302Z,3.76
2022-11-20T10:25:43.867Z,3.67
2022-11-20T10:29:08.982Z,3.63
2022-11-20T10:32:19.621Z,3.69
2022-11-20T10:35:23.060Z,3.78
2022-11-20T10:38:50.779Z,3.73
2022-11-20T10:41:54.805Z,3.69
2022-11-20T10:45:11.302Z,3.65
2022-11-20T10:48:19.404Z,3.58
2022-11-20T10:51:31.122Z,3.51
2022-11-20T10:55:34.597Z,3.55
2022-11-20T10:58:50.140Z,3.59
2022-11-20T11:01:53.097Z,3.69
2022-11-20T11:04:56.178Z,3.67
2022-11-20T11:07:59.967Z,3.65
2022-11-20T11:11:18.315Z,3.68
2022-11-20T11:14:21.449Z,3.77
2022-11-20T11:17:28.318Z,3.87
2022-11-20T11:20:52.075Z,3.89
2022-11-20T11:24:19.679Z,3.90
2022-11-20T11:27:25.743Z,3.87
2022-11-20T11:30:31.650Z,3.84
2022-11-20T11:33:37.048Z,3.78
2022-11-20T11:36:40.436Z,3.88
2022-11-20T11:39:43.931Z,3.88
2022-11-20T11:42:59.096Z,3.81
2022-11-20T11:46:01.807Z,3.83
2022-11-20T11:49:10.523Z,3.88
2022-11-20T11:52:25.350Z,3.95
2022-11-20T11:55:45.049Z,4.10
2022-11-20T11:58:53.216Z,4.23
2022-11-20T12:02:01.355Z,4.51
2022-11-20T12:05:16.112Z,4.57
2022-11-20T12:08:25.317Z,4.75
2022-11-20T12:11:58.085Z,4.85
2022-11-20T12:15:01.426Z,4.83
2022-11-20T12:18:15.453Z,5.09
2022-11-20T12:21:24.821Z,5.19
2022-11-20T12:24:36.880Z,5.14
2022-11-20T12:28:09.581Z,5.22
2022-11-20T12:31:21.099Z,5.66
2022-11-20T12:34:46.426Z,5.63
2022-11-20T12:38:14.379Z,5.44
2022-11-20T12:41:53.848Z,5.43
2022-11-20T12:45:11.226Z,5.35
2022-11-20T12:48:25.041Z,5.26
2022-11-20T12:51:34.576Z,5.03
2022-11-20T12:54:55.658Z,4.96
2022-11-20T12:58:22.188Z,4.96
2022-11-20T13:01:49.080Z,4.87
2022-11-20T13:05:30.381Z,4.79
2022-11-20T13:08:39.549Z,4.71
2022-11-20T13:12:11.011Z,4.62
2022-11-20T13:15:46.776Z,4.58
2022-11-20T13:18:49.720Z,4.52
2022-11-20T13:21:52.993Z,4.51
2022-11-20T13:24:55.987Z,4.58
2022-11-20T13:28:12.858Z,4.55
2022-11-20T13:31:31.797Z,4.56
2022-11-20T13:34:34.979Z,4.48
2022-11-20T13:37:38.979Z,4.46
2022-11-20T13:40:58.567Z,4.48
2022-11-20T13:44:09.979Z,4.32
2022-11-20T13:47:25.023Z,4.39
2022-11-20T13:50:41.102Z,4.24
2022-11-20T13:54:07.750Z,4.21
2022-11-20T13:57:38.204Z,4.09
2022-11-20T14:01:02.042Z,4.03
2022-11-20T14:04:16.737Z,4.01
2022-11-20T14:07:27.481Z,3.89
2022-11-20T14:10:32.359Z,3.94
2022-11-20T14:13:35.722Z,3.84
2022-11-20T14:16:38.878Z,3.80
2022-11-20T14:19:44.393Z,3.69
2022-11-20T14:22:51.660Z,3.65
2022-11-20T14:25:55.289Z,3.63
2022-11-20T14:28:58.122Z,3.58
2022-11-20T14:32:02.180Z,3.54
2022-11-20T14:35:10.922Z,3.52
2022-11-20T14:38:16.351Z,3.42
2022-11-20T14:41:24.575Z,3.38
2022-11-20T14:44:38.415Z,3.31
2022-11-20T14:47:42.775Z,3.15
2022-11-20T14:50:45.747Z,3.12
2022-11-20T14:53:49.455Z,3.09
2022-11-20T14:56:57.348Z,3.06
2022-11-20T15:00:13.441Z,2.98
2022-11-20T15:03:17.806Z,2.87
2022-11-20T15:06:27.092Z,2.84
2022-11-20T15:09:30.416Z,2.86
2022-11-20T15:12:37.199Z,2.85
2022-11-20T15:15:42.879Z,2.85
2022-11-20T15:18:45.758Z,2.91
2022-11-20T15:21:49.071Z,2.84
2022-11-20T15:24:51.845Z,2.75
2022-11-20T15:27:57.463Z,2.66
2022-11-20T15:31:00.998Z,2.54
2022-11-20T15:34:08.606Z,2.47
2022-11-20T15:37:11.804Z,2.47
2022-11-20T15:40:14.976Z,2.45
2022-11-20T15:43:17.813Z,2.49
2022-11-20T15:46:27.569Z,2.32
2022-11-20T15:49:30.490Z,2.21
2022-11-20T15:52:42.098Z,2.30
2022-11-20T15:55:44.924Z,1.98
2022-11-20T15:58:48.235Z,1.95
2022-11-20T16:01:50.746Z,1.97
2022-11-20T16:04:53.772Z,1.89
2022-11-20T16:07:57.026Z,1.97
2022-11-20T16:11:00.112Z,1.83
2022-11-20T16:14:22.819Z,1.78
2022-11-20T16:17:43.699Z,1.66
2022-11-20T16:20:49.147Z,1.45
2022-11-20T16:23:51.707Z,1.33
2022-11-20T16:26:55.217Z,1.26
2022-11-20T16:29:58.179Z,1.34
2022-11-20T16:33:01.759Z,1.21
2022-11-20T16:36:16.229Z,1.19
2022-11-20T16:39:23.646Z,1.02
2022-11-20T16:42:26.986Z,0.75
2022-11-20T16:45:33.725Z,0.76
2022-11-20T16:48:37.566Z,0.98
2022-11-20T16:51:40.758Z,0.75
2022-11-20T16:54:44.156Z,0.72
2022-11-20T16:57:46.862Z,0.72
2022-11-20T17:00:51.813Z,0.69
2022-11-20T17:03:57.736Z,0.67
2022-11-20T17:07:07.526Z,0.57
2022-11-20T17:10:10.955Z,0.57
2022-11-20T17:13:14.198Z,0.50
2022-11-20T17:16:19.956Z,0.40
2022-11-20T17:19:22.592Z,0.42
2022-11-20T17:22:25.680Z,0.41
2022-11-20T17:25:28.682Z,0.45
2022-11-20T17:28:32.523Z,0.34
2022-11-20T17:31:36.639Z,0.24
2022-11-20T17:34:39.582Z,0.23
2022-11-20T17:37:42.598Z,0.14
2022-11-20T17:40:46.323Z,0.11
2022-11-20T17:43:50.168Z,0.07
2022-11-20T17:46:53.016Z,0.11
2022-11-20T17:49:55.867Z,0.03
2022-11-20T17:52:58.936Z,0.02
2022-11-20T17:56:20.681Z,-0.06
2022-11-20T17:59:23.377Z,-0.04
2022-11-20T18:02:26.468Z,-0.28
2022-11-20T18:05:28.967Z,-0.41
2022-11-20T18:08:32.351Z,-0.62
2022-11-20T18:11:38.914Z,-0.52
2022-11-20T18:14:43.726Z,-0.49
2022-11-20T18:17:46.767Z,-0.50
2022-11-20T18:20:54.338Z,-0.47
2022-11-20T18:23:57.950Z,-0.50
2022-11-20T18:27:01.065Z,-0.51
2022-11-20T18:30:04.367Z,-0.43
2022-11-20T18:33:07.659Z,-0.53
2022-11-20T18:36:13.099Z,-0.56
2022-11-20T18:39:16.827Z,-0.59
2022-11-20T18:42:38.295Z,-0.53
2022-11-20T18:45:41.090Z,-0.60
2022-11-20T18:48:44.054Z,-0.60
2022-11-20T18:51:48.166Z,-0.63
2022-11-20T18:54:51.787Z,-0.68
2022-11-20T18:57:55.394Z,-0.71
2022-11-20T19:01:08.616Z,-0.70
2022-11-20T19:04:14.251Z,-0.77
2022-11-20T19:07:17.213Z,-0.80
2022-11-20T19:10:20.465Z,-0.95
2022-11-20T19:13:23.366Z,-0.88
2022-11-20T19:16:26.266Z,-0.83
2022-11-20T19:19:29.914Z,-0.81
2022-11-20T19:22:32.893Z,-0.82
2022-11-20T19:25:38.429Z,-0.85
2022-11-20T19:28:41.445Z,-0.85
2022-11-20T19:31:44.328Z,-0.92
2022-11-20T19:34:47.162Z,-1.05
2022-11-20T19:37:51.879Z,-1.07
2022-11-20T19:40:54.998Z,-0.98
2022-11-20T19:44:03.228Z,-0.96
2022-11-20T19:47:10.234Z,-1.10
2022-11-20T19:50:16.392Z,-1.22
2022-11-20T19:53:19.203Z,-1.22
2022-11-20T19:56:22.105Z,-1.21
2022-11-20T19:59:25.506Z,-1.12
2022-11-20T20:02:28.996Z,-1.12
2022-11-20T20:05:34.439Z,-1.30
2022-11-20T20:08:38.233Z,-1.33
2022-11-20T20:11:45.795Z,-1.31
2022-11-20T20:14:48.802Z,-1.25
2022-11-20T20:17:53.114Z,-1.33
2022-11-20T20:21:03.814Z,-1.33
2022-11-20T20:24:07.503Z,-1.31
2022-11-20T20:27:10.683Z,-1.28
2022-11-20T20:30:13.751Z,-1.27
2022-11-20T20:33:16.588Z,-1.38
2022-11-20T20:36:21.202Z,-1.46
2022-11-20T20:39:26.856Z,-1.58
2022-11-20T20:42:32.107Z,-1.54
2022-11-20T20:45:34.901Z,-1.14
2022-11-20T20:48:37.878Z,-1.19
2022-11-20T20:51:40.681Z,-1.25
2022-11-20T20:54:43.606Z,-1.33
2022-11-20T20:57:46.457Z,-1.50
2022-11-20T21:00:49.612Z,-1.47
2022-11-20T21:03:52.287Z,-1.64
2022-11-20T21:06:55.341Z,-1.68
2022-11-20T21:09:58.213Z,-1.66
2022-11-20T21:13:01.539Z,-1.84
2022-11-20T21:16:04.684Z,-1.71
2022-11-20T21:19:08.087Z,-1.66
2022-11-20T21:22:11.046Z,-1.57
2022-11-20T21:25:13.732Z,-1.47
2022-11-20T21:28:18.396Z,-1.65
2022-11-20T21:31:25.048Z,-1.79
2022-11-20T21:34:27.776Z,-1.65
2022-11-20T21:37:30.564Z,-1.72
2022-11-20T21:40:33.311Z,-1.79
2022-11-20T21:43:38.112Z,-1.82
2022-11-20T21:46:44.570Z,-1.85
2022-11-20T21:49:47.729Z,-1.93
2022-11-20T21:52:50.299Z,-2.03
2022-11-20T21:55:56.777Z,-2.02
2022-11-20T21:58:59.576Z,-2.08
2022-11-20T22:02:02.369Z,-2.04
2022-11-20T22:05:05.158Z,-1.99
2022-11-20T22:08:07.902Z,-2.00
2022-11-20T22:11:13.678Z,-1.94
2022-11-20T22:14:23.264Z,-1.89
2022-11-20T22:17:44.858Z,-1.88
2022-11-20T22:20:47.488Z,-1.89
2022-11-20T22:23:50.207Z,-1.96
2022-11-20T22:26:52.870Z,-1.84
2022-11-20T22:29:55.614Z,-1.86
2022-11-20T22:32:58.499Z,-1.89
2022-11-20T22:36:07.012Z,-2.03
2022-11-20T22:39:10.351Z,-1.96
2022-11-20T22:42:12.787Z,-1.96
2022-11-20T22:45:15.924Z,-1.93
2022-11-20T22:48:18.683Z,-1.94
2022-11-20T22:51:27.514Z,-1.95
2022-11-20T22:54:30.153Z,-1.97
2022-11-20T22:57:33.008Z,-2.04
2022-11-20T23:00:35.808Z,-1.97
2022-11-20T23:03:39.955Z,-2.04
2022-11-20T23:06:42.562Z,-2.05
2022-11-20T23:09:45.283Z,-2.02
2022-11-20T23:12:47.832Z,-2.06
2022-11-20T23:15:50.537Z,-2.13
2022-11-20T23:18:54.940Z,-2.12
2022-11-20T23:21:57.431Z,-2.22
2022-11-20T23:25:00.091Z,-2.27
2022-11-20T23:28:02.899Z,-2.17
2022-11-20T23:31:06.488Z,-2.16
2022-11-20T23:34:09.339Z,-2.16
2022-11-20T23:37:11.986Z,-2.29
2022-11-20T23:40:15.765Z,-2.20
2022-11-20T23:43:20.609Z,-2.21
2022-11-20T23:46:23.248Z,-2.28
2022-11-20T23:49:25.832Z,-2.23
2022-11-20T23:52:28.559Z,-2.33
2022-11-20T23:55:31.210Z,-2.22
2022-11-20T23:58:36.619Z,-2.14
